Time;durP1;ratioP1;P1;durP2;ratioP2;P2;SDS_P1;SDS_P2;PMS_P1;PMS_P2;Temp;Humidity;BMP_temperature;BMP_pressure;BME280_temperature;BME280_humidity;BME280_pressure;Samples;Min_cycle;Max_cycle;Signal;HPM_P1;HPM_P2
2022/07/13 00:01:30;;;;;;;5.55;3.17;;;;;;;18.78;65.54;100024.09;5116304;28;20019;-57
2022/07/13 00:03:56;;;;;;;6.63;2.78;;;;;;;19.00;65.35;100035.41;5117001;28;20043;-57
2022/07/13 00:06:21;;;;;;;6.60;2.67;;;;;;;19.13;62.85;100021.19;5117327;28;20367;-56
2022/07/13 00:08:46;;;;;;;8.80;3.03;;;;;;;19.21;64.09;100027.13;5095892;28;20530;-58
2022/07/13 00:11:12;;;;;;;5.93;3.00;;;;;;;19.11;65.05;100028.81;5120787;28;20055;-57
2022/07/13 00:13:37;;;;;;;5.28;2.97;;;;;;;19.08;65.84;100023.13;5113479;28;20077;-57
2022/07/13 00:16:03;;;;;;;8.98;2.97;;;;;;;19.07;66.17;100026.94;5121739;28;20064;-58
2022/07/13 00:18:28;;;;;;;8.80;3.00;;;;;;;19.02;66.55;100014.22;5121573;28;20102;-57
2022/07/13 00:20:54;;;;;;;6.35;3.22;;;;;;;19.02;66.44;100016.94;5121279;28;20044;-57
2022/07/13 00:23:19;;;;;;;10.85;3.10;;;;;;;18.93;66.48;100018.59;5116121;28;20080;-58
2022/07/13 00:25:45;;;;;;;7.15;3.00;;;;;;;18.68;68.30;100017.56;5101067;28;20046;-57
2022/07/13 00:28:10;;;;;;;7.88;3.15;;;;;;;18.83;67.81;100024.06;5111660;28;20031;-57
2022/07/13 00:30:36;;;;;;;7.13;3.08;;;;;;;18.91;67.24;100024.28;5094807;28;20024;-57
2022/07/13 00:33:01;;;;;;;5.57;2.78;;;;;;;18.89;67.50;100022.94;5120761;28;20035;-57
2022/07/13 00:35:27;;;;;;;9.88;3.28;;;;;;;18.75;67.99;100018.13;5100905;28;20039;-57
2022/07/13 00:37:52;;;;;;;6.43;2.83;;;;;;;18.73;68.84;100025.69;5118919;28;20373;-57
2022/07/13 00:40:17;;;;;;;6.07;2.80;;;;;;;18.56;68.93;100019.78;5118664;27;20376;-57
2022/07/13 00:42:43;;;;;;;4.75;2.95;;;;;;;18.68;68.80;100020.28;5118131;27;20076;-57
2022/07/13 00:45:09;;;;;;;9.27;2.85;;;;;;;18.79;67.69;100021.06;5105611;27;20023;-57
2022/07/13 00:47:35;;;;;;;9.02;3.15;;;;;;;18.90;67.69;100021.88;5126257;27;20027;-57
2022/07/13 00:50:07;;;;;;;6.63;2.70;;;;;;;18.95;67.17;100021.84;5105868;27;20359;-57
2022/07/13 00:52:36;;;;;;;5.50;2.78;;;;;;;18.78;67.53;100011.31;5103970;27;20108;-57
2022/07/13 00:55:01;;;;;;;7.90;3.15;;;;;;;18.75;67.27;100004.53;5125645;27;20377;-57
2022/07/13 00:57:27;;;;;;;7.18;2.92;;;;;;;18.86;66.50;100001.78;5100878;27;20035;-57
2022/07/13 00:59:53;;;;;;;7.78;3.10;;;;;;;18.80;65.76;100006.44;5104773;27;20481;-57
2022/07/13 01:02:19;;;;;;;7.60;2.90;;;;;;;18.77;65.70;100004.28;5115645;27;20027;-57
2022/07/13 01:04:44;;;;;;;10.45;3.20;;;;;;;18.84;64.81;99996.59;5120164;27;20051;-57
2022/07/13 01:07:10;;;;;;;15.88;3.47;;;;;;;18.75;65.08;99988.25;5104249;28;20339;-57
2022/07/13 01:09:36;;;;;;;9.40;3.72;;;;;;;18.99;64.99;99986.78;5122690;27;20108;-57
2022/07/13 01:12:02;;;;;;;10.65;4.60;;;;;;;18.92;65.16;99978.91;5115070;27;20134;-57
2022/07/13 01:14:29;;;;;;;12.65;4.38;;;;;;;19.00;64.71;99978.34;5122621;27;20480;-56
2022/07/13 01:16:54;;;;;;;7.00;3.65;;;;;;;19.04;64.63;99975.88;5121565;27;20115;-57
2022/07/13 01:19:20;;;;;;;11.57;4.53;;;;;;;19.08;64.42;99972.31;5084020;28;20032;-57
2022/07/13 01:21:46;;;;;;;9.60;3.50;;;;;;;19.11;65.80;99981.81;5100188;27;20027;-57
2022/07/13 01:24:11;;;;;;;8.18;3.17;;;;;;;18.93;67.38;99972.41;5084821;28;20050;-58
2022/07/13 01:26:40;;;;;;;4.18;2.85;;;;;;;18.61;68.89;99973.59;5126904;27;20026;-57
2022/07/13 01:29:06;;;;;;;7.18;2.80;;;;;;;18.49;69.64;99962.25;5103126;27;20035;-57
2022/07/13 01:31:33;;;;;;;7.68;2.53;;;;;;;18.26;69.66;99955.53;5121737;27;20023;-57
2022/07/13 01:33:59;;;;;;;6.75;2.83;;;;;;;18.15;70.48;99952.03;5098079;28;20011;-57
2022/07/13 01:36:25;;;;;;;9.10;2.97;;;;;;;18.33;70.35;99956.88;5124482;27;20774;-57
2022/07/13 01:38:50;;;;;;;9.07;2.90;;;;;;;18.37;70.71;99961.75;5100755;28;20032;-59
2022/07/13 01:41:28;;;;;;;6.72;3.00;;;;;;;18.40;70.44;99962.00;5119212;27;20027;-57
2022/07/13 01:43:53;;;;;;;6.35;3.03;;;;;;;18.47;69.84;99967.13;5101833;27;20073;-57
2022/07/13 01:46:19;;;;;;;9.00;2.88;;;;;;;18.08;71.05;99973.22;5103141;27;20031;-57
2022/07/13 01:48:44;;;;;;;4.70;3.10;;;;;;;18.12;70.85;99974.28;5117104;27;20036;-57
2022/07/13 01:51:10;;;;;;;7.10;2.83;;;;;;;17.92;71.34;99972.41;5119279;27;20027;-57
2022/07/13 01:53:35;;;;;;;5.20;2.78;;;;;;;17.87;72.03;99973.25;5118076;27;20629;-57
2022/07/13 01:56:01;;;;;;;6.25;3.17;;;;;;;17.65;73.65;99964.56;5122382;27;20030;-57
2022/07/13 01:58:26;;;;;;;4.75;2.80;;;;;;;17.55;73.31;99959.13;5121190;27;20408;-57
2022/07/13 02:00:52;;;;;;;5.22;2.65;;;;;;;17.75;69.56;99956.41;5122236;27;20058;-57
2022/07/13 02:03:19;;;;;;;6.93;2.50;;;;;;;17.82;67.50;99961.56;5120336;27;20110;-57
2022/07/13 02:05:45;;;;;;;4.47;2.50;;;;;;;17.86;67.03;99951.81;5125144;27;20054;-57
2022/07/13 02:08:10;;;;;;;5.50;2.60;;;;;;;17.85;66.89;99947.50;5119673;27;20538;-57
2022/07/13 02:10:35;;;;;;;4.78;2.85;;;;;;;17.94;67.04;99947.72;5118439;27;20027;-57
2022/07/13 02:13:04;;;;;;;5.22;2.60;;;;;;;18.03;67.46;99946.09;5115072;27;20488;-57
2022/07/13 02:15:30;;;;;;;7.00;2.60;;;;;;;18.03;69.04;99957.75;5101965;27;20047;-57
2022/07/13 02:17:55;;;;;;;7.18;2.60;;;;;;;18.06;69.21;99950.97;5121107;27;20033;-57
2022/07/13 02:20:21;;;;;;;6.32;2.70;;;;;;;18.09;68.59;99955.84;5117043;27;20038;-57
2022/07/13 02:22:46;;;;;;;4.32;2.97;;;;;;;18.08;70.63;99959.66;5118410;27;20023;-57
2022/07/13 02:25:15;;;;;;;6.47;2.90;;;;;;;18.10;73.04;99960.19;5116787;27;20028;-56
2022/07/13 02:27:41;;;;;;;4.85;2.60;;;;;;;18.02;72.26;99952.59;5119497;27;20498;-57
2022/07/13 02:30:07;;;;;;;8.85;2.85;;;;;;;17.99;72.36;99953.16;5113519;27;20027;-56
2022/07/13 02:32:32;;;;;;;6.05;2.70;;;;;;;17.71;70.98;99949.91;5116536;27;20027;-57
2022/07/13 02:34:58;;;;;;;5.22;2.80;;;;;;;17.64;74.62;99952.88;5117298;27;20023;-62
2022/07/13 02:37:23;;;;;;;7.75;2.78;;;;;;;17.72;74.35;99939.84;5119557;27;20031;-57
2022/07/13 02:39:51;;;;;;;7.45;2.90;;;;;;;17.41;77.38;99940.69;5118008;27;20449;-57
2022/07/13 02:42:17;;;;;;;3.85;2.47;;;;;;;17.43;75.32;99938.53;5121301;27;20028;-57
2022/07/13 02:44:42;;;;;;;9.15;2.80;;;;;;;17.46;72.78;99927.13;5118471;27;20027;-57
2022/07/13 02:47:07;;;;;;;6.75;2.80;;;;;;;17.56;72.20;99914.66;5115457;27;20034;-57
2022/07/13 02:49:33;;;;;;;5.78;2.60;;;;;;;17.64;71.56;99917.63;5101869;27;20090;-56
2022/07/13 02:51:58;;;;;;;4.20;2.58;;;;;;;17.71;71.61;99917.38;5116754;27;20031;-56
2022/07/13 02:54:24;;;;;;;4.82;2.45;;;;;;;17.80;71.55;99913.06;5120282;27;20465;-56
2022/07/13 02:56:49;;;;;;;3.42;2.40;;;;;;;17.74;71.44;99911.38;5120284;27;20035;-56
2022/07/13 02:59:14;;;;;;;5.22;2.50;;;;;;;17.62;71.51;99909.00;5116038;27;20027;-57
2022/07/13 03:01:40;;;;;;;4.53;2.80;;;;;;;17.84;69.63;99908.69;5127842;27;20027;-57
2022/07/13 03:04:05;;;;;;;6.70;2.60;;;;;;;18.00;71.98;99914.09;5116876;27;20043;-56
2022/07/13 03:06:31;;;;;;;5.20;2.88;;;;;;;17.61;76.13;99917.38;5125575;27;20083;-56
2022/07/13 03:08:56;;;;;;;6.28;3.20;;;;;;;17.25;77.61;99917.38;5116686;27;20048;-56
2022/07/13 03:11:22;;;;;;;5.63;3.42;;;;;;;16.97;78.42;99919.50;5119351;27;20437;-56
2022/07/13 03:13:47;;;;;;;7.60;2.88;;;;;;;17.00;78.15;99920.88;5114274;27;20377;-57
2022/07/13 03:16:12;;;;;;;8.57;2.70;;;;;;;16.91;78.59;99920.56;5118186;27;20023;-56
2022/07/13 03:18:38;;;;;;;6.93;2.65;;;;;;;16.94;77.75;99914.59;5115987;27;20026;-57
2022/07/13 03:21:06;;;;;;;8.38;2.90;;;;;;;17.12;76.62;99909.75;5101489;28;20042;-57
2022/07/13 03:23:32;;;;;;;8.82;2.72;;;;;;;17.27;75.86;99917.09;5118840;27;20032;-56
2022/07/13 03:25:57;;;;;;;5.45;2.70;;;;;;;17.43;74.54;99916.84;5121758;27;20035;-57
2022/07/13 03:28:23;;;;;;;6.15;2.90;;;;;;;17.54;73.92;99914.13;5116283;27;20312;-57
2022/07/13 03:30:48;;;;;;;5.10;2.40;;;;;;;17.60;72.59;99910.34;5115524;27;20432;-57
2022/07/13 03:33:13;;;;;;;4.45;2.88;;;;;;;17.54;75.45;99906.00;5100864;27;20034;-57
2022/07/13 03:35:39;;;;;;;3.85;2.70;;;;;;;17.69;72.31;99897.84;5114156;27;20083;-56
2022/07/13 03:38:04;;;;;;;7.35;2.80;;;;;;;17.72;72.65;99897.28;5120682;27;20027;-57
2022/07/13 03:40:30;;;;;;;3.90;2.47;;;;;;;17.75;73.11;99896.75;5108802;27;20066;-57
2022/07/13 03:42:55;;;;;;;6.13;2.70;;;;;;;17.71;73.14;99901.09;5118504;27;20024;-57
2022/07/13 03:45:20;;;;;;;10.68;3.13;;;;;;;17.60;75.88;99897.59;5120087;27;20019;-57
2022/07/13 03:47:46;;;;;;;5.35;2.95;;;;;;;17.58;75.83;99899.75;5122648;27;20031;-57
2022/07/13 03:50:11;;;;;;;8.80;2.92;;;;;;;17.67;75.28;99895.44;5116222;27;20496;-57
2022/07/13 03:52:37;;;;;;;5.07;2.78;;;;;;;17.68;74.37;99899.75;5120615;27;20349;-57
2022/07/13 03:55:02;;;;;;;6.95;2.80;;;;;;;17.65;74.93;99900.31;5093662;27;20093;-57
2022/07/13 03:57:28;;;;;;;6.53;3.00;;;;;;;17.72;74.27;99908.13;5116572;28;20023;-56
2022/07/13 03:59:53;;;;;;;4.57;2.50;;;;;;;17.74;74.24;99916.81;5117687;27;20086;-57
2022/07/13 04:02:18;;;;;;;8.98;2.40;;;;;;;17.76;72.15;99911.13;5120902;28;20453;-57
2022/07/13 04:04:44;;;;;;;4.05;2.70;;;;;;;17.83;71.14;99915.22;5116857;28;20042;-57
2022/07/13 04:07:09;;;;;;;6.22;2.53;;;;;;;17.82;71.26;99904.63;5115334;28;20047;-57
2022/07/13 04:09:35;;;;;;;8.15;2.60;;;;;;;17.96;69.10;99902.19;5121055;28;20460;-56
2022/07/13 04:12:00;;;;;;;10.48;2.60;;;;;;;18.05;67.08;99903.25;5105938;28;20019;-57
2022/07/13 04:14:26;;;;;;;8.80;2.40;;;;;;;18.20;67.88;99907.81;5112216;27;20026;-56
2022/07/13 04:16:51;;;;;;;5.28;2.63;;;;;;;18.03;70.75;99900.81;5119438;27;20019;-56
2022/07/13 04:19:16;;;;;;;4.63;2.45;;;;;;;17.93;70.24;99903.53;5119943;27;20080;-56
2022/07/13 04:21:42;;;;;;;3.83;2.42;;;;;;;17.85;71.11;99899.50;5120943;27;20024;-56
2022/07/13 04:24:07;;;;;;;6.10;2.50;;;;;;;17.91;69.41;99900.28;5122649;27;20056;-56
2022/07/13 04:26:33;;;;;;;6.78;2.72;;;;;;;17.88;69.53;99901.66;5122153;27;20065;-56
2022/07/13 04:28:59;;;;;;;5.00;2.40;;;;;;;18.08;66.44;99905.41;5101368;27;20100;-57
2022/07/13 04:31:24;;;;;;;6.93;2.22;;;;;;;18.45;63.93;99898.75;5117208;27;20031;-57
2022/07/13 04:33:50;;;;;;;6.65;2.50;;;;;;;18.56;64.00;99897.63;5120995;27;20027;-57
2022/07/13 04:36:15;;;;;;;3.88;2.42;;;;;;;18.95;65.69;99896.91;5124846;27;20130;-57
2022/07/13 04:38:41;;;;;;;6.15;2.10;;;;;;;19.15;62.51;99896.75;5124436;27;20027;-57
2022/07/13 04:41:06;;;;;;;5.57;2.08;;;;;;;18.88;61.15;99890.97;5106096;27;20053;-57
2022/07/13 04:43:31;;;;;;;5.75;2.08;;;;;;;18.88;60.94;99890.97;5121915;27;20015;-58
2022/07/13 04:45:57;;;;;;;6.55;2.10;;;;;;;18.94;60.46;99887.09;5126666;27;20649;-57
2022/07/13 04:48:22;;;;;;;5.28;2.20;;;;;;;19.05;60.42;99885.16;5118546;27;20151;-57
2022/07/13 04:50:48;;;;;;;4.13;2.22;;;;;;;19.05;60.17;99880.53;5123360;27;20488;-57
2022/07/13 04:53:13;;;;;;;5.50;2.22;;;;;;;19.38;60.64;99883.53;5119794;27;20421;-57
2022/07/13 04:55:38;;;;;;;3.42;2.00;;;;;;;19.43;59.75;99897.06;5124894;27;20122;-57
2022/07/13 04:58:05;;;;;;;4.18;2.20;;;;;;;19.56;60.16;99885.53;5119502;27;20073;-58
2022/07/13 05:00:30;;;;;;;7.40;2.30;;;;;;;19.53;60.44;99894.25;5100230;27;20028;-58
2022/07/13 05:02:56;;;;;;;5.13;2.20;;;;;;;19.85;59.09;99881.22;5105741;27;20180;-57
2022/07/13 05:05:22;;;;;;;5.22;2.33;;;;;;;19.82;58.59;99886.13;5122998;27;20039;-58
2022/07/13 05:07:47;;;;;;;4.90;2.45;;;;;;;20.01;59.29;99886.19;5118502;27;20020;-58
2022/07/13 05:10:13;;;;;;;6.07;2.30;;;;;;;20.07;58.47;99886.97;5116320;27;20027;-57
2022/07/13 05:12:39;;;;;;;4.00;2.28;;;;;;;20.11;58.85;99882.56;5120451;27;20077;-57
2022/07/13 05:15:07;;;;;;;3.90;2.20;;;;;;;20.08;59.35;99879.63;5103558;27;20114;-57
2022/07/13 05:17:32;;;;;;;4.57;2.40;;;;;;;20.16;59.49;99884.41;5116053;27;20046;-56
2022/07/13 05:19:57;;;;;;;5.40;2.30;;;;;;;20.27;58.18;99883.19;5117614;27;20427;-57
2022/07/13 05:22:23;;;;;;;6.38;2.40;;;;;;;20.43;57.99;99887.34;5119518;27;20024;-57
2022/07/13 05:24:48;;;;;;;4.15;2.38;;;;;;;20.27;58.44;99888.66;5111965;27;20032;-56
2022/07/13 05:27:13;;;;;;;5.47;2.30;;;;;;;20.46;58.62;99884.03;5119299;27;20015;-56
2022/07/13 05:29:39;;;;;;;3.60;2.17;;;;;;;20.71;57.78;99887.53;5122741;27;20382;-56
2022/07/13 05:32:05;;;;;;;7.25;2.50;;;;;;;21.03;56.76;99877.81;5119772;27;20028;-56
2022/07/13 05:34:30;;;;;;;3.25;2.10;;;;;;;20.59;55.52;99884.44;5119400;27;20019;-56
2022/07/13 05:36:56;;;;;;;4.13;2.35;;;;;;;21.06;56.83;99888.13;5113044;27;20407;-56
2022/07/13 05:39:22;;;;;;;5.30;2.20;;;;;;;20.94;54.76;99879.59;5117293;27;20023;-57
2022/07/13 05:41:47;;;;;;;7.55;2.38;;;;;;;21.19;56.53;99881.94;5120238;27;20474;-56
2022/07/13 05:44:13;;;;;;;4.22;2.20;;;;;;;21.18;56.77;99891.22;5099704;28;20401;-56
2022/07/13 05:46:38;;;;;;;4.22;2.08;;;;;;;21.33;56.08;99892.88;5117674;27;20030;-57
2022/07/13 05:49:03;;;;;;;9.52;2.20;;;;;;;21.73;55.69;99896.84;5114960;27;20028;-57
2022/07/13 05:51:29;;;;;;;4.75;2.30;;;;;;;22.00;54.67;99892.56;5092454;28;20490;-57
2022/07/13 05:53:54;;;;;;;5.03;2.00;;;;;;;22.04;54.91;99890.00;5110604;27;20019;-56
2022/07/13 05:56:20;;;;;;;5.47;2.13;;;;;;;21.66;54.79;99885.53;5118436;27;20034;-57
2022/07/13 05:58:45;;;;;;;3.70;2.30;;;;;;;22.10;53.34;99888.81;5117010;27;20019;-57
2022/07/13 06:01:11;;;;;;;6.10;2.50;;;;;;;22.21;54.31;99892.19;5111777;27;20026;-56
2022/07/13 06:03:36;;;;;;;5.55;2.97;;;;;;;22.15;54.11;99897.72;5103834;27;20492;-57
2022/07/13 06:06:01;;;;;;;3.83;2.20;;;;;;;22.81;52.72;99902.91;5128080;27;20031;-57
2022/07/13 06:08:27;;;;;;;3.78;2.25;;;;;;;22.36;51.65;99894.59;5100088;27;20076;-57
2022/07/13 06:10:53;;;;;;;5.15;2.20;;;;;;;23.11;49.78;99889.69;5107857;27;20027;-56
2022/07/13 06:13:18;;;;;;;5.30;2.33;;;;;;;23.86;49.13;99891.66;5117571;27;20064;-57
2022/07/13 06:15:44;;;;;;;4.20;2.10;;;;;;;24.60;47.22;99890.13;5121135;27;20031;-57
2022/07/13 06:18:09;;;;;;;8.80;2.65;;;;;;;25.30;46.57;99901.94;5080434;28;20024;-56
2022/07/13 06:20:35;;;;;;;26.73;4.18;;;;;;;25.41;49.23;99896.94;5082628;27;20027;-57
2022/07/13 06:23:09;;;;;;;34.47;4.57;;;;;;;24.52;50.83;99902.69;5117518;27;20026;-57
2022/07/13 06:25:35;;;;;;;21.42;3.85;;;;;;;23.87;52.51;99896.00;5121217;27;20402;-60
2022/07/13 06:28:00;;;;;;;13.77;3.95;;;;;;;23.27;53.40;99903.81;5117677;27;20019;-56
2022/07/13 06:30:26;;;;;;;4.57;2.47;;;;;;;23.31;50.42;99896.59;5121000;27;20027;-56
2022/07/13 06:32:51;;;;;;;4.72;2.20;;;;;;;23.45;49.47;99897.34;5120334;27;20154;-56
2022/07/13 06:35:16;;;;;;;5.75;2.28;;;;;;;23.31;50.09;99888.38;5115356;27;20088;-57
2022/07/13 06:37:42;;;;;;;4.68;2.28;;;;;;;22.81;50.96;99887.34;5100904;28;20023;-56
2022/07/13 06:40:08;;;;;;;4.60;2.22;;;;;;;22.79;51.10;99886.84;5119183;27;20037;-56
2022/07/13 06:42:33;;;;;;;7.70;2.50;;;;;;;23.07;50.81;99878.59;5100633;27;20458;-57
2022/07/13 06:44:59;;;;;;;6.82;2.70;;;;;;;22.90;50.86;99881.94;5119377;27;20027;-56
2022/07/13 06:47:24;;;;;;;4.45;2.35;;;;;;;23.08;51.51;99885.66;5116092;27;20026;-56
2022/07/13 06:49:50;;;;;;;5.15;2.20;;;;;;;23.04;50.37;99879.22;5103225;27;20034;-56
2022/07/13 06:52:15;;;;;;;4.68;2.10;;;;;;;23.18;50.81;99884.59;5121944;27;20027;-56
2022/07/13 06:54:41;;;;;;;4.82;2.30;;;;;;;23.14;50.23;99876.22;5117677;27;20042;-57
2022/07/13 06:57:07;;;;;;;4.30;2.05;;;;;;;23.09;50.43;99881.81;5123233;27;20031;-57
2022/07/13 06:59:32;;;;;;;11.48;2.47;;;;;;;23.36;50.96;99880.84;5121726;27;20026;-56
2022/07/13 07:01:58;;;;;;;6.07;2.40;;;;;;;23.27;50.01;99882.75;5099523;28;20075;-56
2022/07/13 07:04:23;;;;;;;4.93;2.42;;;;;;;23.33;51.11;99886.97;5117211;27;20449;-57
2022/07/13 07:06:48;;;;;;;5.68;2.42;;;;;;;22.88;50.71;99878.72;5118790;27;20547;-57
2022/07/13 07:09:14;;;;;;;3.75;2.33;;;;;;;22.51;52.35;99871.63;5115437;27;20435;-57
2022/07/13 07:11:39;;;;;;;6.80;2.40;;;;;;;22.89;51.18;99877.59;5119725;27;20466;-57
2022/07/13 07:14:05;;;;;;;5.60;2.50;;;;;;;22.86;52.22;99883.66;5118876;27;20109;-57
2022/07/13 07:16:30;;;;;;;3.58;2.25;;;;;;;23.15;50.74;99886.03;5120712;27;20026;-60
2022/07/13 07:18:55;;;;;;;4.20;2.10;;;;;;;23.09;51.06;99887.28;5117330;27;20050;-56
2022/07/13 07:21:21;;;;;;;3.67;2.17;;;;;;;23.52;50.15;99880.50;5114096;27;20497;-56
2022/07/13 07:23:47;;;;;;;3.72;2.20;;;;;;;23.79;49.86;99883.09;5099084;27;20597;-57
2022/07/13 07:26:13;;;;;;;4.55;2.30;;;;;;;24.39;49.00;99878.13;5104059;28;20023;-57
2022/07/13 07:28:38;;;;;;;4.47;2.42;;;;;;;24.46;48.96;99878.50;5117567;27;20461;-57
2022/07/13 07:31:04;;;;;;;7.53;2.50;;;;;;;24.59;47.46;99877.56;5108424;27;20027;-58
2022/07/13 07:33:29;;;;;;;5.55;2.50;;;;;;;25.10;46.34;99884.19;5072809;28;20042;-57
2022/07/13 07:35:55;;;;;;;8.43;2.80;;;;;;;25.63;46.96;99892.38;5120824;27;20019;-57
2022/07/13 07:38:20;;;;;;;5.00;2.55;;;;;;;26.06;46.59;99894.19;5115296;27;20019;-57
2022/07/13 07:40:45;;;;;;;6.18;2.22;;;;;;;27.61;42.84;99898.88;5117767;27;20393;-57
2022/07/13 07:43:11;;;;;;;7.20;2.20;;;;;;;26.62;42.97;99889.38;5118655;27;20027;-57
2022/07/13 07:45:36;;;;;;;7.13;2.22;;;;;;;27.29;41.79;99891.13;5116356;27;20034;-57
2022/07/13 07:48:02;;;;;;;4.75;2.30;;;;;;;25.95;43.78;99900.03;5126130;27;20023;-56
2022/07/13 07:50:28;;;;;;;4.70;2.45;;;;;;;26.13;43.67;99892.53;5097539;28;20019;-56
2022/07/13 07:52:53;;;;;;;4.50;2.20;;;;;;;26.23;44.67;99888.59;5119748;27;20160;-56
2022/07/13 07:55:19;;;;;;;6.80;2.20;;;;;;;26.37;43.73;99877.38;5114280;28;20098;-57
2022/07/13 07:57:48;;;;;;;3.30;2.25;;;;;;;26.12;44.56;99870.91;5122757;27;20061;-54
2022/07/13 08:00:14;;;;;;;10.68;2.55;;;;;;;27.26;42.23;99875.28;5123384;27;20019;-56
2022/07/13 08:02:40;;;;;;;4.10;2.30;;;;;;;27.41;42.33;99875.78;5117554;28;20343;-56
2022/07/13 08:05:06;;;;;;;8.68;2.60;;;;;;;28.33;41.39;99871.78;5098142;28;20024;-57
2022/07/13 08:07:32;;;;;;;3.70;2.15;;;;;;;29.70;39.55;99874.56;5120187;28;20023;-56
2022/07/13 08:09:57;;;;;;;3.63;2.13;;;;;;;29.31;38.65;99870.75;5097884;28;20039;-57
2022/07/13 08:12:23;;;;;;;7.38;2.30;;;;;;;29.43;38.78;99867.91;5117206;28;20031;-57
2022/07/13 08:14:48;;;;;;;4.10;2.20;;;;;;;28.53;39.01;99865.38;5118357;28;20035;-56
2022/07/13 08:17:13;;;;;;;4.80;2.15;;;;;;;28.17;40.05;99861.44;5120325;28;20027;-57
2022/07/13 08:19:39;;;;;;;7.13;2.25;;;;;;;28.19;40.18;99858.34;5115949;28;20015;-57
2022/07/13 08:22:04;;;;;;;3.17;2.08;;;;;;;29.10;39.06;99857.94;5098657;28;20031;-57
2022/07/13 08:24:30;;;;;;;4.18;2.13;;;;;;;28.59;36.54;99852.13;5119606;28;20019;-56
2022/07/13 08:26:55;;;;;;;6.28;2.10;;;;;;;29.22;36.06;99840.53;5114521;28;20023;-57
2022/07/13 08:29:21;;;;;;;11.80;2.03;;;;;;;29.72;35.22;99841.88;5103599;28;20031;-56
2022/07/13 08:31:46;;;;;;;3.67;1.98;;;;;;;29.19;36.15;99846.78;5114825;28;20032;-57
2022/07/13 08:39:39;;;;;;;5.22;2.15;;;;;;;30.70;34.65;99851.25;5116365;28;20035;-56
2022/07/13 08:42:06;;;;;;;6.25;1.90;;;;;;;30.42;34.46;99854.19;5115612;28;20408;-56
2022/07/13 08:44:32;;;;;;;3.80;1.77;;;;;;;30.25;34.36;99858.97;5107792;28;20042;-56
2022/07/13 08:46:58;;;;;;;4.85;2.10;;;;;;;30.61;33.84;99854.22;5110899;28;20459;-55
2022/07/13 08:49:24;;;;;;;5.00;1.95;;;;;;;31.42;31.81;99859.03;5100892;28;20023;-57
2022/07/13 08:51:56;;;;;;;2.55;1.88;;;;;;;32.71;30.14;99857.53;5116561;28;20278;-57
2022/07/13 08:54:21;;;;;;;5.80;2.10;;;;;;;31.85;31.11;99854.22;5117436;28;20039;-56
2022/07/13 08:56:47;;;;;;;4.57;2.10;;;;;;;30.91;32.28;99842.63;5117369;28;20107;-56
2022/07/13 08:59:13;;;;;;;6.35;1.90;;;;;;;32.17;30.63;99845.66;5114372;28;20035;-56
2022/07/13 09:01:38;;;;;;;4.30;2.20;;;;;;;32.74;29.94;99843.69;5114561;28;20118;-56
2022/07/13 09:04:08;;;;;;;6.20;2.22;;;;;;;32.54;30.40;99845.03;5076352;28;20089;-56
2022/07/13 09:06:43;;;;;;;6.25;2.20;;;;;;;32.32;29.63;99850.22;5122499;27;20543;-56
2022/07/13 09:09:31;;;;;;;3.08;1.90;;;;;;;32.29;30.32;99837.13;5115126;27;20471;-56
2022/07/13 09:12:19;;;;;;;6.50;2.20;;;;;;;31.88;30.58;99841.63;5121304;27;20106;-56
2022/07/13 09:14:50;;;;;;;3.10;2.20;;;;;;;31.47;32.01;99842.13;5128118;27;20444;-56
2022/07/13 09:17:33;;;;;;;5.93;1.90;;;;;;;31.54;31.50;99841.44;5098612;28;20457;-57
2022/07/13 09:20:02;;;;;;;5.18;2.30;;;;;;;30.95;32.36;99840.72;5119881;27;20031;-57
2022/07/13 09:22:27;;;;;;;4.68;1.95;;;;;;;30.31;33.71;99835.41;5123044;27;20473;-57
2022/07/13 09:24:56;;;;;;;5.75;2.30;;;;;;;29.91;32.87;99837.59;5124411;27;20023;-57
2022/07/13 09:27:22;;;;;;;5.90;2.08;;;;;;;29.86;33.60;99833.94;5101267;28;20420;-57
2022/07/13 09:29:47;;;;;;;8.93;2.00;;;;;;;30.61;33.34;99836.84;5095534;27;20052;-57
2022/07/13 09:32:13;;;;;;;8.52;2.30;;;;;;;29.73;34.28;99837.97;5113043;27;20054;-57
2022/07/13 09:34:44;;;;;;;6.93;2.30;;;;;;;30.38;34.21;99839.47;5124093;27;20476;-56
2022/07/13 09:37:10;;;;;;;5.20;2.47;;;;;;;30.80;32.47;99844.31;5119137;27;20031;-57
2022/07/13 09:40:08;;;;;;;7.93;2.50;;;;;;;31.48;32.22;99840.16;5120730;27;20027;-57
2022/07/13 09:42:36;;;;;;;7.13;2.20;;;;;;;31.56;32.67;99837.13;5096190;27;20124;-57
2022/07/13 09:47:53;;;;;;;4.68;2.20;;;;;;;31.86;31.52;99844.75;5118793;27;20080;-56
2022/07/13 09:50:19;;;;;;;5.03;2.80;;;;;;;31.48;31.72;99832.66;5094308;27;20031;-56
2022/07/13 09:52:45;;;;;;;5.40;2.33;;;;;;;31.52;31.20;99830.72;5117264;27;20485;-56
2022/07/13 09:55:12;;;;;;;4.25;2.50;;;;;;;31.75;30.59;99832.69;5117740;27;20021;-56
2022/07/13 09:57:45;;;;;;;12.55;2.38;;;;;;;32.25;30.79;99836.25;5099816;28;20051;-56
2022/07/13 10:00:11;;;;;;;6.45;2.65;;;;;;;32.35;29.41;99829.25;5119601;27;20070;-56
2022/07/13 10:02:38;;;;;;;8.35;2.40;;;;;;;33.65;28.86;99824.88;5084026;27;20035;-56
2022/07/13 10:05:04;;;;;;;3.85;2.40;;;;;;;33.97;28.15;99821.53;5098669;28;20114;-56
2022/07/13 10:07:29;;;;;;;7.65;2.30;;;;;;;32.52;28.65;99820.41;5087868;27;20032;-56
2022/07/13 10:09:57;;;;;;;4.88;2.10;;;;;;;32.55;28.45;99814.13;5107484;27;20028;-56
2022/07/13 10:12:22;;;;;;;6.40;2.30;;;;;;;33.64;27.63;99823.25;5103012;27;20023;-56
2022/07/13 10:14:47;;;;;;;4.00;2.30;;;;;;;34.18;26.36;99829.25;5104720;27;20045;-56
2022/07/13 10:17:14;;;;;;;4.32;2.53;;;;;;;34.82;25.34;99823.22;5079210;28;20023;-56
2022/07/13 10:19:48;;;;;;;5.18;2.10;;;;;;;35.75;25.02;99823.44;5074798;28;20483;-56
2022/07/13 10:22:25;;;;;;;7.95;2.45;;;;;;;35.47;24.89;99818.59;5102868;28;20077;-56
2022/07/13 10:24:57;;;;;;;13.25;2.42;;;;;;;34.96;25.11;99823.28;5121892;27;20031;-56
2022/07/13 10:27:22;;;;;;;4.15;2.35;;;;;;;35.42;24.13;99817.03;5122950;27;20038;-56
2022/07/13 10:29:49;;;;;;;12.27;2.25;;;;;;;36.43;23.64;99823.31;5112036;27;20031;-56
2022/07/13 10:32:17;;;;;;;8.60;2.20;;;;;;;35.54;24.19;99821.41;5122309;27;20470;-56
2022/07/13 10:35:20;;;;;;;4.28;2.40;;;;;;;35.37;24.32;99814.63;5119011;27;20505;-57
2022/07/13 10:38:03;;;;;;;8.93;2.63;;;;;;;33.86;25.54;99806.75;5095970;27;20068;-56
2022/07/13 10:40:29;;;;;;;6.43;2.40;;;;;;;34.94;25.73;99808.94;5117309;27;20486;-56
2022/07/13 10:42:59;;;;;;;4.78;2.25;;;;;;;35.38;24.14;99810.66;5122732;27;20098;-56
2022/07/13 10:45:31;;;;;;;5.32;2.30;;;;;;;35.37;24.39;99811.84;5118317;27;20038;-56
2022/07/13 10:47:57;;;;;;;6.82;2.30;;;;;;;34.93;24.60;99812.91;5119798;27;20023;-58
2022/07/13 10:50:22;;;;;;;6.70;2.58;;;;;;;32.69;27.64;99812.72;5116967;27;20027;-56
2022/07/13 10:52:48;;;;;;;6.28;2.20;;;;;;;33.31;25.77;99801.91;5114832;27;20036;-56
2022/07/13 10:55:13;;;;;;;10.82;2.58;;;;;;;35.28;24.23;99803.06;5122850;27;20027;-57
2022/07/13 10:57:42;;;;;;;4.00;2.25;;;;;;;33.90;24.65;99802.03;5119942;27;20027;-56
2022/07/13 11:02:54;;;;;;;5.72;2.80;;;;;;;34.05;25.71;99792.59;5118339;27;20885;-56
2022/07/13 11:05:21;;;;;;;4.43;2.53;;;;;;;34.53;24.99;99789.69;5116872;27;20062;-57
2022/07/13 11:07:47;;;;;;;6.15;2.35;;;;;;;34.79;24.33;99787.81;5116050;27;20034;-57
2022/07/13 11:10:20;;;;;;;8.43;2.40;;;;;;;34.48;24.70;99778.16;5117970;27;20037;-57
2022/07/13 11:12:54;;;;;;;5.57;2.30;;;;;;;35.05;23.69;99781.13;5117335;27;20023;-57
2022/07/13 11:15:20;;;;;;;10.20;2.10;;;;;;;33.96;25.17;99772.69;5107075;27;20042;-57
2022/07/13 11:17:52;;;;;;;6.55;2.30;;;;;;;34.43;24.87;99770.97;5102821;27;20031;-56
2022/07/13 11:20:17;;;;;;;4.03;2.30;;;;;;;34.51;24.41;99769.81;5115740;27;20092;-56
2022/07/13 11:25:50;;;;;;;6.68;2.30;;;;;;;34.49;23.12;99769.38;5085486;27;20035;-56
2022/07/13 11:28:24;;;;;;;19.00;2.58;;;;;;;34.83;22.35;99762.78;5116306;27;20172;-57
2022/07/13 11:30:53;;;;;;;6.88;2.47;;;;;;;35.03;22.23;99760.44;5118350;27;20043;-57
2022/07/13 11:33:19;;;;;;;7.05;2.58;;;;;;;34.56;23.06;99761.06;5113870;27;20057;-56
2022/07/13 11:35:46;;;;;;;7.35;2.60;;;;;;;34.97;22.77;99752.47;5094858;28;20040;-56
2022/07/13 11:38:13;;;;;;;11.02;2.50;;;;;;;34.86;23.00;99748.88;5105350;27;20084;-56
2022/07/13 11:40:39;;;;;;;8.30;2.50;;;;;;;34.26;23.64;99744.66;5115079;27;20038;-55
2022/07/13 11:43:10;;;;;;;7.60;2.40;;;;;;;33.63;24.99;99743.88;5117692;27;20420;-55